Time;durP1;ratioP1;P1;durP2;ratioP2;P2;SDS_P1;SDS_P2;PMS_P1;PMS_P2;Temp;Humidity;BMP_temperature;BMP_pressure;BME280_temperature;BME280_humidity;BME280_pressure;Samples;Min_cycle;Max_cycle;Signal;HPM_P1;HPM_P2
2021/12/18 00:01:09;;;;;;;10.20;4.07;;;-0.40;99.90;;;;;;2213151;64;20604;-31
2021/12/18 00:03:36;;;;;;;14.57;5.43;;;-0.40;99.90;;;;;;2216676;64;20108;-31
2021/12/18 00:06:03;;;;;;;11.70;5.00;;;-0.50;99.90;;;;;;2216479;64;20116;-32
2021/12/18 00:08:30;;;;;;;9.07;4.50;;;-0.40;99.90;;;;;;2216709;64;20105;-31
2021/12/18 00:10:57;;;;;;;11.23;4.13;;;-0.40;99.90;;;;;;2216571;64;20108;-33
2021/12/18 00:13:24;;;;;;;10.17;4.07;;;-0.50;99.90;;;;;;2216504;64;20104;-32
2021/12/18 00:15:51;;;;;;;11.40;4.17;;;-0.50;99.90;;;;;;2216549;64;20097;-31
2021/12/18 00:18:17;;;;;;;10.70;4.07;;;-0.60;99.90;;;;;;2216517;64;20093;-32
2021/12/18 00:20:45;;;;;;;11.93;3.50;;;-0.60;99.90;;;;;;2216428;64;20085;-32
2021/12/18 00:23:12;;;;;;;12.53;4.67;;;-0.70;99.90;;;;;;2213448;64;20097;-32
2021/12/18 00:25:39;;;;;;;14.93;5.07;;;-0.60;99.90;;;;;;2216296;64;20174;-32
2021/12/18 00:28:06;;;;;;;13.60;4.60;;;-0.70;99.90;;;;;;2213370;64;20488;-32
2021/12/18 00:30:33;;;;;;;12.80;4.93;;;-0.60;99.90;;;;;;2216433;64;20096;-34
2021/12/18 00:33:01;;;;;;;12.80;4.90;;;-0.60;99.90;;;;;;2216538;64;20182;-31
2021/12/18 00:35:27;;;;;;;13.87;5.27;;;-0.60;99.90;;;;;;2213362;64;20558;-31
2021/12/18 00:37:54;;;;;;;11.77;4.27;;;-0.70;99.90;;;;;;2216506;64;20089;-32
2021/12/18 00:40:25;;;;;;;13.17;5.10;;;-0.70;99.90;;;;;;2213124;64;20103;-32
2021/12/18 00:43:13;;;;;;;11.23;4.33;;;-0.60;99.90;;;;;;2216364;64;20093;-31
2021/12/18 00:45:40;;;;;;;10.23;4.43;;;-0.70;99.90;;;;;;2216259;64;20496;-31
2021/12/18 00:48:07;;;;;;;11.03;4.27;;;-0.60;99.90;;;;;;2219831;64;20166;-31
2021/12/18 00:50:33;;;;;;;12.53;4.07;;;-0.60;99.90;;;;;;2217101;64;20085;-32
2021/12/18 00:53:00;;;;;;;12.03;4.10;;;-0.60;99.90;;;;;;2216905;64;20105;-32
2021/12/18 00:55:27;;;;;;;13.73;5.10;;;-0.60;99.90;;;;;;2220208;64;20116;-31
2021/12/18 00:57:54;;;;;;;13.73;5.07;;;-0.60;99.90;;;;;;2220260;64;20088;-31
2021/12/18 01:00:24;;;;;;;14.27;4.70;;;-0.50;99.90;;;;;;2220442;64;20081;-32
2021/12/18 01:02:57;;;;;;;14.97;4.30;;;-0.50;99.90;;;;;;2220223;64;20096;-32
2021/12/18 01:05:24;;;;;;;12.87;4.50;;;-0.40;99.90;;;;;;2217301;64;20095;-31
2021/12/18 01:07:54;;;;;;;13.40;4.50;;;-0.40;99.90;;;;;;2217111;64;20111;-32
2021/12/18 01:10:37;;;;;;;14.00;6.03;;;-0.40;99.90;;;;;;2217114;64;20085;-31
2021/12/18 01:13:07;;;;;;;10.33;4.73;;;-0.30;99.90;;;;;;2217174;64;20515;-32
2021/12/18 01:15:39;;;;;;;11.27;4.27;;;-0.30;99.90;;;;;;2217042;64;20099;-31
2021/12/18 01:23:36;;;;;;;15.52;5.32;;;-0.20;99.90;;;;;;2220400;64;20081;-37
2021/12/18 01:26:04;;;;;;;15.37;5.47;;;-0.40;99.90;;;;;;2220287;64;20473;-35
2021/12/18 01:28:31;;;;;;;15.00;4.97;;;-0.40;99.90;;;;;;2217124;64;20092;-31
2021/12/18 01:30:58;;;;;;;11.80;4.80;;;-0.40;99.90;;;;;;2217201;64;20174;-31
2021/12/18 01:33:25;;;;;;;11.77;5.57;;;-0.30;99.90;;;;;;2216758;64;20564;-31
2021/12/18 01:35:55;;;;;;;18.83;7.93;;;-0.40;99.90;;;;;;2211354;64;20102;-32
2021/12/18 01:38:23;;;;;;;16.67;7.47;;;-0.40;99.90;;;;;;2208107;64;20609;-31
2021/12/18 01:40:51;;;;;;;15.70;7.57;;;-0.40;99.90;;;;;;2208373;64;20116;-34
2021/12/18 01:46:33;;;;;;;12.70;5.93;;;-0.40;99.90;;;;;;2204892;64;20105;-33
2021/12/18 01:54:12;;;;;;;14.83;5.77;;;-0.30;99.90;;;;;;2207428;64;19973;-37
2021/12/18 01:56:39;;;;;;;11.43;4.17;;;-0.30;99.90;;;;;;2207711;64;20458;-36
2021/12/18 01:59:06;;;;;;;14.93;6.10;;;-0.20;99.90;;;;;;2207656;64;20086;-33
2021/12/18 02:01:33;;;;;;;14.90;5.37;;;-0.30;99.90;;;;;;2210723;64;20108;-30
2021/12/18 02:04:00;;;;;;;17.13;6.77;;;-0.30;99.90;;;;;;2207595;64;20192;-31
2021/12/18 02:06:26;;;;;;;17.13;6.43;;;-0.30;99.90;;;;;;2207612;64;20629;-33
2021/12/18 02:08:53;;;;;;;16.50;6.20;;;-0.40;99.90;;;;;;2204283;64;20097;-32
2021/12/18 02:11:33;;;;;;;14.27;6.17;;;-0.40;99.90;;;;;;2207811;64;20082;-31
2021/12/18 02:14:33;;;;;;;16.17;5.30;;;-0.40;99.90;;;;;;2216994;64;20097;-31
2021/12/18 02:19:57;;;;;;;;;;;-0.50;99.90;;;;;;2219563;64;20592;-32
2021/12/18 02:22:26;;;;;;;20.03;8.83;;;-0.40;99.90;;;;;;2216115;64;19969;-32
2021/12/18 02:24:53;;;;;;;16.07;6.47;;;-0.40;99.90;;;;;;2219368;64;20100;-31
2021/12/18 02:27:20;;;;;;;17.77;6.73;;;-0.50;99.90;;;;;;2216379;64;20101;-32
2021/12/18 02:29:47;;;;;;;15.33;6.07;;;-0.50;99.90;;;;;;2214693;64;20089;-31
2021/12/18 02:32:19;;;;;;;17.60;6.90;;;-0.60;99.90;;;;;;2211880;64;20599;-31
2021/12/18 02:34:52;;;;;;;13.87;5.33;;;-0.60;99.90;;;;;;2211940;64;20097;-32
2021/12/18 02:37:23;;;;;;;11.97;5.10;;;-0.60;99.90;;;;;;2212015;64;20116;-31
2021/12/18 02:42:32;;;;;;;12.80;4.40;;;-0.60;99.90;;;;;;2211965;64;20578;-32
2021/12/18 02:44:59;;;;;;;16.37;4.70;;;-0.50;99.90;;;;;;2211761;64;20515;-32
2021/12/18 02:47:26;;;;;;;12.87;5.60;;;-0.50;99.90;;;;;;2213449;64;20077;-31
2021/12/18 02:49:53;;;;;;;15.53;4.30;;;-0.50;99.90;;;;;;2208809;64;20559;-31
2021/12/18 02:52:20;;;;;;;9.40;4.47;;;-0.40;99.90;;;;;;2208858;64;20561;-31
2021/12/18 02:54:47;;;;;;;11.37;3.87;;;-0.40;99.90;;;;;;2208596;64;20093;-31
2021/12/18 02:57:14;;;;;;;9.90;4.20;;;-0.40;99.90;;;;;;2208568;64;20089;-32
2021/12/18 02:59:45;;;;;;;12.03;4.27;;;-0.40;99.90;;;;;;2212001;64;20605;-31
2021/12/18 03:02:12;;;;;;;11.73;3.37;;;-0.40;99.90;;;;;;2211779;64;20088;-32
2021/12/18 03:04:41;;;;;;;10.90;4.67;;;-0.40;99.90;;;;;;2208634;64;20086;-32
2021/12/18 03:07:10;;;;;;;11.40;3.90;;;-0.30;99.90;;;;;;2209978;64;20581;-31
2021/12/18 03:18:57;;;;;;;12.13;4.77;;;-0.30;99.90;;;;;;2216202;64;20092;-30
2021/12/18 03:25:45;;;;;;;10.53;4.20;;;-0.20;99.80;;;;;;2216054;64;20104;-31
2021/12/18 03:28:13;;;;;;;9.03;3.73;;;-0.30;99.70;;;;;;2219219;64;20331;-32
2021/12/18 03:30:40;;;;;;;8.20;3.23;;;-0.30;99.80;;;;;;2216124;64;20077;-32
2021/12/18 03:33:07;;;;;;;9.37;3.47;;;-0.30;99.80;;;;;;2216064;64;20465;-34
2021/12/18 03:35:34;;;;;;;10.37;3.73;;;-0.20;99.70;;;;;;2216618;64;20085;-33
2021/12/18 03:38:01;;;;;;;10.87;3.93;;;-0.30;99.60;;;;;;2219984;64;20165;-32
2021/12/18 03:40:27;;;;;;;9.63;3.77;;;-0.20;99.70;;;;;;2216818;64;20571;-32
2021/12/18 03:42:54;;;;;;;8.47;2.90;;;-0.20;99.70;;;;;;2216920;64;20556;-30
2021/12/18 03:45:21;;;;;;;10.10;3.80;;;-0.20;99.70;;;;;;2213391;64;20105;-32
2021/12/18 03:47:49;;;;;;;9.03;3.63;;;-0.20;99.70;;;;;;2215609;64;20097;-30
2021/12/18 03:50:16;;;;;;;11.23;3.83;;;-0.30;99.70;;;;;;2216744;64;20097;-31
2021/12/18 03:52:43;;;;;;;10.53;4.60;;;-0.20;99.90;;;;;;2213394;64;20103;-32
2021/12/18 03:55:10;;;;;;;8.80;3.83;;;-0.30;99.80;;;;;;2216644;64;20170;-31
2021/12/18 03:57:37;;;;;;;7.87;3.33;;;-0.40;99.80;;;;;;2213395;64;20557;-31
2021/12/18 04:00:05;;;;;;;8.47;3.67;;;-0.40;99.90;;;;;;2216624;64;20135;-32
2021/12/18 04:02:32;;;;;;;8.10;3.23;;;-0.40;99.90;;;;;;2216373;64;20081;-31
2021/12/18 04:04:59;;;;;;;9.97;4.53;;;-0.30;99.90;;;;;;2216782;64;20088;-33
2021/12/18 04:07:25;;;;;;;10.23;4.30;;;-0.30;99.80;;;;;;2216479;64;20491;-31
2021/12/18 04:09:52;;;;;;;8.37;3.30;;;-0.30;99.70;;;;;;2216710;64;20096;-31
2021/12/18 04:12:19;;;;;;;9.70;3.87;;;-0.40;99.80;;;;;;2216540;64;20461;-32
2021/12/18 04:14:46;;;;;;;8.43;3.83;;;-0.30;99.90;;;;;;2216621;64;20469;-33
2021/12/18 04:17:13;;;;;;;8.07;3.90;;;-0.30;99.90;;;;;;2216689;64;20646;-31
2021/12/18 04:19:39;;;;;;;9.00;4.30;;;-0.30;99.80;;;;;;2216570;64;20105;-37
2021/12/18 04:22:06;;;;;;;12.13;3.87;;;-0.30;99.90;;;;;;2216540;64;20564;-33
2021/12/18 04:24:33;;;;;;;7.63;2.70;;;-0.30;99.90;;;;;;2216598;64;20114;-32
2021/12/18 04:27:00;;;;;;;7.17;3.03;;;-0.30;99.90;;;;;;2216574;64;20081;-32
2021/12/18 04:29:27;;;;;;;10.10;3.53;;;-0.20;99.90;;;;;;2216711;64;20092;-32
2021/12/18 04:31:54;;;;;;;7.50;3.47;;;-0.30;99.90;;;;;;2216399;64;20117;-32
2021/12/18 04:34:20;;;;;;;7.80;4.43;;;-0.20;99.90;;;;;;2213371;64;20568;-32
2021/12/18 04:36:47;;;;;;;8.27;4.33;;;-0.20;99.90;;;;;;2216469;64;20545;-32
2021/12/18 04:39:14;;;;;;;10.80;4.57;;;-0.20;99.90;;;;;;2216487;64;20112;-31
2021/12/18 04:41:50;;;;;;;8.03;3.53;;;-0.30;99.90;;;;;;2216487;64;20093;-36
2021/12/18 04:44:17;;;;;;;10.07;4.20;;;-0.30;99.90;;;;;;2213067;64;20089;-31
2021/12/18 04:46:44;;;;;;;7.80;3.93;;;-0.30;99.90;;;;;;2217406;64;20115;-33
2021/12/18 04:49:10;;;;;;;9.70;4.50;;;-0.30;99.90;;;;;;2216930;64;20142;-31
2021/12/18 04:51:37;;;;;;;10.83;4.57;;;-0.30;99.90;;;;;;2217275;64;20088;-31
2021/12/18 04:54:04;;;;;;;10.13;5.17;;;-0.30;99.90;;;;;;2220209;64;20089;-33
2021/12/18 04:56:31;;;;;;;9.63;3.97;;;-0.30;99.90;;;;;;2216870;64;20096;-33
2021/12/18 04:58:58;;;;;;;9.20;3.80;;;-0.30;99.90;;;;;;2216985;64;20162;-31
2021/12/18 05:01:25;;;;;;;9.27;3.20;;;-0.20;99.90;;;;;;2220464;64;20103;-31
2021/12/18 05:03:52;;;;;;;9.17;4.03;;;-0.20;99.90;;;;;;2217074;64;20088;-31
2021/12/18 05:06:19;;;;;;;9.33;3.93;;;-0.10;99.90;;;;;;2217035;64;20177;-32
2021/12/18 05:08:46;;;;;;;6.73;2.77;;;-0.20;99.90;;;;;;2220264;64;20638;-31
2021/12/18 05:11:12;;;;;;;8.30;3.57;;;-0.10;99.90;;;;;;2220247;64;20077;-31
2021/12/18 05:13:39;;;;;;;9.73;3.43;;;-0.10;99.90;;;;;;2217074;64;20480;-31
2021/12/18 05:16:06;;;;;;;7.30;2.47;;;-0.10;99.90;;;;;;2217001;64;20084;-30
2021/12/18 05:18:33;;;;;;;7.90;3.50;;;-0.20;99.90;;;;;;2219993;64;20606;-31
2021/12/18 05:21:00;;;;;;;10.43;3.70;;;-0.10;99.90;;;;;;2220038;64;20081;-31
2021/12/18 05:23:27;;;;;;;8.03;3.30;;;-0.20;99.90;;;;;;2220179;64;20176;-31
2021/12/18 05:25:53;;;;;;;10.80;3.97;;;-0.10;99.90;;;;;;2220237;64;20081;-32
2021/12/18 05:28:20;;;;;;;13.93;5.53;;;-0.20;99.90;;;;;;2220317;64;20111;-31
2021/12/18 05:30:47;;;;;;;12.07;4.10;;;-0.20;99.90;;;;;;2219997;64;20082;-30
2021/12/18 05:33:14;;;;;;;11.67;4.67;;;-0.10;99.90;;;;;;2217037;64;20587;-30
2021/12/18 05:35:41;;;;;;;8.10;3.53;;;-0.10;99.90;;;;;;2220075;64;20144;-29
2021/12/18 05:38:07;;;;;;;11.83;3.93;;;-0.20;99.90;;;;;;2220343;64;20144;-29
2021/12/18 05:40:37;;;;;;;4.93;2.47;;;-0.20;99.90;;;;;;2211855;64;20177;-30
2021/12/18 05:43:04;;;;;;;10.57;4.07;;;-0.10;99.90;;;;;;2208709;64;20720;-31
2021/12/18 05:45:31;;;;;;;7.50;3.03;;;-0.10;99.90;;;;;;2208783;64;20105;-30
2021/12/18 05:47:58;;;;;;;13.33;5.73;;;-0.10;99.90;;;;;;2211143;64;20103;-30
2021/12/18 05:50:28;;;;;;;10.30;4.50;;;-0.10;99.90;;;;;;2208742;64;20092;-30
2021/12/18 05:52:55;;;;;;;8.93;4.20;;;0.00;99.90;;;;;;2211864;64;20113;-30
2021/12/18 05:55:25;;;;;;;10.83;4.50;;;0.00;99.90;;;;;;2212125;64;20109;-31
2021/12/18 05:57:52;;;;;;;10.80;3.30;;;0.00;99.90;;;;;;2211722;64;20089;-30
2021/12/18 06:00:21;;;;;;;9.47;3.67;;;0.00;99.90;;;;;;2212096;64;20092;-31
2021/12/18 06:02:48;;;;;;;12.67;5.83;;;0.00;99.90;;;;;;2211861;64;20096;-33
2021/12/18 06:05:15;;;;;;;11.53;5.03;;;0.10;99.90;;;;;;2208870;64;20194;-32
2021/12/18 06:07:55;;;;;;;9.87;4.03;;;0.10;99.90;;;;;;2211921;64;20616;-33
2021/12/18 06:10:28;;;;;;;12.33;5.13;;;0.10;99.90;;;;;;2212116;64;20718;-31
2021/12/18 06:12:57;;;;;;;9.90;4.83;;;0.10;99.90;;;;;;2203896;64;20090;-31
2021/12/18 06:15:24;;;;;;;8.67;4.30;;;0.10;99.90;;;;;;2201003;64;20168;-32
2021/12/18 06:17:53;;;;;;;11.03;5.07;;;0.10;99.90;;;;;;2207253;64;20500;-33
2021/12/18 06:20:19;;;;;;;8.97;3.53;;;0.10;99.90;;;;;;2208120;64;20166;-33
2021/12/18 06:22:46;;;;;;;14.07;5.23;;;0.20;99.90;;;;;;2208181;64;20159;-35
2021/12/18 06:25:13;;;;;;;10.93;4.37;;;0.20;99.90;;;;;;2204892;64;20128;-33
2021/12/18 06:27:40;;;;;;;11.00;5.30;;;0.20;99.90;;;;;;2204816;64;20097;-34
2021/12/18 06:30:09;;;;;;;11.90;6.70;;;0.20;99.90;;;;;;2208186;64;20086;-37
2021/12/18 06:32:36;;;;;;;15.57;6.20;;;0.20;99.90;;;;;;2204792;64;20089;-47
2021/12/18 06:35:04;;;;;;;12.20;5.53;;;0.20;99.90;;;;;;2208190;64;20086;-38
2021/12/18 06:37:30;;;;;;;11.67;5.17;;;0.20;99.90;;;;;;2204744;64;20095;-38
2021/12/18 06:39:57;;;;;;;11.57;6.20;;;0.20;99.90;;;;;;2208104;64;20635;-40
2021/12/18 06:42:24;;;;;;;14.60;6.27;;;0.30;99.90;;;;;;2204776;64;20148;-37
2021/12/18 06:44:51;;;;;;;14.37;5.47;;;0.30;99.90;;;;;;2211482;64;20229;-40
2021/12/18 06:47:18;;;;;;;13.63;5.20;;;0.40;99.90;;;;;;2217638;64;20112;-43
2021/12/18 06:49:44;;;;;;;10.20;3.90;;;0.30;99.70;;;;;;2213665;64;20095;-38
2021/12/18 06:52:11;;;;;;;8.67;2.67;;;0.30;99.60;;;;;;2219837;64;20097;-36
2021/12/18 06:54:38;;;;;;;6.60;3.50;;;0.30;99.60;;;;;;2214125;64;20097;-38
2021/12/18 06:57:05;;;;;;;9.37;5.37;;;0.30;99.50;;;;;;2204689;64;20098;-39
2021/12/18 06:59:32;;;;;;;7.87;3.50;;;0.30;99.50;;;;;;2204477;64;20105;-34
2021/12/18 07:01:59;;;;;;;13.07;6.50;;;0.30;99.60;;;;;;2204746;64;20096;-34
2021/12/18 07:04:26;;;;;;;11.17;4.13;;;0.30;99.60;;;;;;2204455;64;20081;-35
2021/12/18 07:06:53;;;;;;;10.50;4.43;;;0.40;99.40;;;;;;2204817;64;20098;-36
2021/12/18 07:09:20;;;;;;;13.87;6.00;;;0.40;99.60;;;;;;2204687;64;20092;-36
2021/12/18 07:11:47;;;;;;;8.43;2.93;;;0.30;99.60;;;;;;2204787;64;20088;-35
2021/12/18 07:14:13;;;;;;;13.33;5.57;;;0.40;99.80;;;;;;2204586;64;20160;-35
2021/12/18 07:16:40;;;;;;;10.20;4.53;;;0.60;99.40;;;;;;2204825;64;20085;-38
2021/12/18 07:19:07;;;;;;;9.27;3.80;;;0.50;99.30;;;;;;2204830;64;20153;-39
2021/12/18 07:21:34;;;;;;;11.60;5.47;;;0.50;99.30;;;;;;2204805;64;20557;-40
2021/12/18 07:24:01;;;;;;;9.00;4.13;;;0.40;99.10;;;;;;2204682;64;20096;-35
2021/12/18 07:26:29;;;;;;;11.57;4.57;;;0.50;99.20;;;;;;2204652;64;20112;-35
2021/12/18 07:28:56;;;;;;;10.07;4.33;;;0.60;99.30;;;;;;2208100;64;20183;-35
2021/12/18 07:31:23;;;;;;;10.03;5.13;;;0.60;99.30;;;;;;2206069;64;20089;-37
2021/12/18 07:33:50;;;;;;;9.63;4.97;;;0.60;99.50;;;;;;2219715;64;20552;-35
2021/12/18 07:36:17;;;;;;;11.90;5.60;;;0.70;99.50;;;;;;2219483;64;20088;-35
2021/12/18 07:38:44;;;;;;;12.13;5.63;;;0.70;99.30;;;;;;2219625;64;20093;-39
2021/12/18 07:41:11;;;;;;;12.23;6.17;;;0.60;99.30;;;;;;2223043;64;20096;-48
2021/12/18 07:43:38;;;;;;;13.70;6.50;;;0.70;99.20;;;;;;2219748;64;20096;-45
2021/12/18 07:46:05;;;;;;;10.47;5.30;;;0.80;99.20;;;;;;2219778;64;20093;-49
2021/12/18 07:48:32;;;;;;;15.70;7.07;;;0.80;99.20;;;;;;2219734;64;20092;-41
2021/12/18 07:50:58;;;;;;;10.37;5.93;;;0.70;99.10;;;;;;2216533;64;20096;-41
2021/12/18 07:53:25;;;;;;;12.40;4.90;;;0.80;99.00;;;;;;2219605;64;20568;-40
2021/12/18 07:55:52;;;;;;;16.20;6.93;;;0.80;98.80;;;;;;2216368;64;20603;-38
2021/12/18 07:58:19;;;;;;;13.87;7.17;;;0.90;98.80;;;;;;2219663;64;20430;-36
2021/12/18 08:00:46;;;;;;;14.13;7.33;;;0.80;98.70;;;;;;2219714;64;20105;-36
2021/12/18 08:03:13;;;;;;;13.73;6.87;;;0.90;98.70;;;;;;2219698;64;20093;-35
2021/12/18 08:05:40;;;;;;;13.80;6.87;;;0.90;98.80;;;;;;2216722;64;20537;-36
2021/12/18 08:08:07;;;;;;;10.67;5.30;;;0.90;98.50;;;;;;2219682;64;20092;-35
2021/12/18 08:10:34;;;;;;;17.60;5.90;;;1.00;98.60;;;;;;2216556;64;20092;-35
2021/12/18 08:13:00;;;;;;;10.37;6.07;;;0.90;98.60;;;;;;2219546;64;20160;-35
2021/12/18 08:15:27;;;;;;;10.97;5.67;;;0.90;98.60;;;;;;2219795;64;20587;-33
2021/12/18 08:17:57;;;;;;;14.87;6.20;;;0.90;99.00;;;;;;2219644;64;20108;-33
2021/12/18 08:20:26;;;;;;;13.43;6.97;;;1.00;98.80;;;;;;2220151;64;20561;-34
2021/12/18 08:22:53;;;;;;;13.77;6.17;;;0.90;98.60;;;;;;2220245;64;20495;-37
2021/12/18 08:25:19;;;;;;;11.53;6.37;;;0.90;98.60;;;;;;2220283;64;20603;-36
2021/12/18 08:27:46;;;;;;;13.37;6.20;;;1.00;98.60;;;;;;2220317;64;20085;-37
2021/12/18 08:30:14;;;;;;;13.90;6.70;;;1.00;98.50;;;;;;2220376;64;20136;-40
2021/12/18 08:32:43;;;;;;;12.80;6.47;;;1.00;98.40;;;;;;2217025;64;20471;-37
2021/12/18 08:35:10;;;;;;;13.73;5.60;;;0.80;98.90;;;;;;2220325;64;20077;-37
2021/12/18 08:37:37;;;;;;;15.40;7.03;;;0.90;99.00;;;;;;2220257;64;20112;-38
2021/12/18 08:40:04;;;;;;;14.37;6.83;;;1.10;98.70;;;;;;2213598;64;20088;-38
2021/12/18 08:42:31;;;;;;;12.70;6.03;;;1.10;98.40;;;;;;2220097;64;20092;-37
2021/12/18 08:44:58;;;;;;;10.63;5.60;;;1.00;98.90;;;;;;2217026;64;20092;-37
2021/12/18 08:47:25;;;;;;;12.53;5.60;;;1.10;98.70;;;;;;2216840;64;20096;-36
2021/12/18 08:49:52;;;;;;;10.20;5.93;;;1.10;98.30;;;;;;2217176;64;20130;-38
2021/12/18 08:52:19;;;;;;;10.17;5.30;;;1.10;98.20;;;;;;2216848;64;20092;-38
2021/12/18 08:54:46;;;;;;;10.13;5.03;;;0.90;98.60;;;;;;2219959;64;20115;-38
2021/12/18 08:57:13;;;;;;;13.70;6.03;;;1.10;98.60;;;;;;2220253;64;20126;-36
2021/12/18 08:59:40;;;;;;;9.50;5.30;;;0.90;98.20;;;;;;2216967;64;20173;-35
2021/12/18 09:02:07;;;;;;;7.07;2.73;;;1.00;98.00;;;;;;2214969;64;20619;-36
2021/12/18 09:04:35;;;;;;;11.10;5.17;;;1.10;98.30;;;;;;2212036;64;20186;-36
2021/12/18 09:07:02;;;;;;;4.30;1.30;;;1.10;97.50;;;;;;2209006;64;20243;-37
2021/12/18 09:09:29;;;;;;;9.47;4.80;;;1.00;97.50;;;;;;2208736;64;20089;-36
2021/12/18 09:11:56;;;;;;;9.40;4.83;;;0.90;97.90;;;;;;2205800;64;20524;-37
2021/12/18 09:14:23;;;;;;;8.93;2.97;;;0.80;98.50;;;;;;2208625;64;20639;-37
2021/12/18 09:16:52;;;;;;;16.97;5.10;;;1.00;98.10;;;;;;2208951;64;20085;-38
2021/12/18 09:19:19;;;;;;;9.17;3.77;;;0.90;97.90;;;;;;2208923;64;20111;-36
2021/12/18 09:21:46;;;;;;;5.33;1.83;;;1.00;98.00;;;;;;2211949;64;20100;-36
2021/12/18 09:24:13;;;;;;;11.80;4.30;;;1.00;97.40;;;;;;2208941;64;20105;-35
2021/12/18 09:26:40;;;;;;;9.53;3.93;;;1.10;97.60;;;;;;2208710;64;20264;-35
2021/12/18 09:29:06;;;;;;;9.43;5.03;;;1.10;97.40;;;;;;2215248;64;20481;-33
2021/12/18 09:31:33;;;;;;;10.67;5.53;;;1.10;97.80;;;;;;2208661;64;20108;-36
2021/12/18 09:34:00;;;;;;;14.20;6.37;;;1.10;97.70;;;;;;2208687;64;20104;-34
2021/12/18 09:36:27;;;;;;;13.00;6.23;;;1.20;97.70;;;;;;2208741;64;20085;-34
2021/12/18 09:38:54;;;;;;;14.67;7.70;;;1.10;97.30;;;;;;2209790;64;20085;-34
2021/12/18 09:41:21;;;;;;;16.43;9.93;;;1.20;97.60;;;;;;2217596;64;20141;-33
2021/12/18 09:43:48;;;;;;;18.77;8.27;;;1.10;97.90;;;;;;2204926;64;20171;-33
2021/12/18 09:46:14;;;;;;;7.87;3.13;;;1.20;97.80;;;;;;2211285;64;20117;-33
2021/12/18 09:48:42;;;;;;;18.63;9.00;;;1.20;97.40;;;;;;2208027;64;20104;-34
2021/12/18 09:51:14;;;;;;;16.60;6.23;;;1.10;97.40;;;;;;2207927;64;20145;-32
2021/12/18 09:53:41;;;;;;;18.50;9.50;;;1.20;97.00;;;;;;2211004;64;20112;-34
2021/12/18 09:56:08;;;;;;;15.50;6.60;;;1.20;97.10;;;;;;2211356;64;20082;-32
2021/12/18 09:58:35;;;;;;;8.33;3.10;;;1.20;97.10;;;;;;2208304;64;20196;-33
2021/12/18 10:01:03;;;;;;;13.87;4.60;;;1.10;96.80;;;;;;2207873;64;20081;-34
2021/12/18 10:03:57;;;;;;;19.77;7.90;;;1.10;97.20;;;;;;2208186;64;20101;-34
2021/12/18 10:06:36;;;;;;;17.53;8.63;;;1.10;97.20;;;;;;2211176;64;20554;-34
2021/12/18 10:09:11;;;;;;;19.63;10.47;;;1.00;97.80;;;;;;2208217;64;20115;-34
2021/12/18 10:11:55;;;;;;;21.50;8.98;;;0.90;98.20;;;;;;2212638;64;20072;-33
2021/12/18 10:14:38;;;;;;;22.23;10.50;;;1.00;98.00;;;;;;2216732;64;20154;-41
2021/12/18 10:17:18;;;;;;;16.30;8.30;;;1.00;97.80;;;;;;2219997;64;20088;-32
2021/12/18 10:19:45;;;;;;;14.43;8.13;;;0.90;97.90;;;;;;2216789;64;20591;-32
2021/12/18 10:22:13;;;;;;;18.10;10.40;;;0.90;98.10;;;;;;2216719;64;20110;-31
2021/12/18 10:24:41;;;;;;;19.10;9.03;;;1.00;97.80;;;;;;2220059;64;20093;-31
2021/12/18 10:27:19;;;;;;;14.17;6.97;;;0.90;98.00;;;;;;2219924;64;20077;-32
2021/12/18 10:29:52;;;;;;;17.17;7.50;;;1.00;98.20;;;;;;2216817;64;20169;-37
2021/12/18 10:32:20;;;;;;;13.23;6.37;;;1.10;97.60;;;;;;2219975;64;20178;-35
2021/12/18 10:34:51;;;;;;;9.67;5.03;;;0.90;98.00;;;;;;2216804;64;20103;-32
2021/12/18 10:37:22;;;;;;;11.87;5.47;;;1.00;98.00;;;;;;2216884;64;20161;-31
2021/12/18 10:39:56;;;;;;;8.77;4.67;;;1.00;97.80;;;;;;2216965;64;20116;-39
2021/12/18 10:42:26;;;;;;;6.77;2.23;;;1.10;97.80;;;;;;2216671;64;20445;-33
2021/12/18 10:45:15;;;;;;;6.63;3.73;;;0.90;97.90;;;;;;2216808;64;20472;-34
2021/12/18 10:47:54;;;;;;;6.33;2.10;;;0.90;97.70;;;;;;2216682;64;20546;-32
2021/12/18 10:50:33;;;;;;;12.30;6.10;;;0.70;97.90;;;;;;2216708;64;20085;-46
2021/12/18 10:53:06;;;;;;;7.77;3.53;;;0.80;98.30;;;;;;2216665;64;20084;-30
2021/12/18 10:55:35;;;;;;;8.90;4.40;;;0.90;98.10;;;;;;2216513;64;20085;-34
2021/12/18 10:58:05;;;;;;;10.37;6.30;;;0.90;98.20;;;;;;2219829;64;20589;-33
2021/12/18 11:00:33;;;;;;;6.23;2.97;;;0.80;98.00;;;;;;2216654;64;20095;-31
2021/12/18 11:03:15;;;;;;;7.17;3.93;;;0.80;98.10;;;;;;2216773;64;20202;-32
2021/12/18 11:05:42;;;;;;;10.60;5.83;;;0.70;98.10;;;;;;2216592;64;20144;-36
2021/12/18 11:08:12;;;;;;;5.83;2.60;;;0.60;98.70;;;;;;2213641;64;20518;-32
2021/12/18 11:10:43;;;;;;;7.80;3.57;;;0.60;98.60;;;;;;2216629;64;20100;-32
2021/12/18 11:15:55;;;;;;;;;;;0.70;98.70;;;;;;2216621;64;20096;-33
2021/12/18 11:18:22;;;;;;;1.60;0.63;;;0.70;98.70;;;;;;2216640;64;20065;-44
2021/12/18 11:20:50;;;;;;;6.30;2.07;;;0.70;98.50;;;;;;2223127;64;20177;-35
2021/12/18 11:23:26;;;;;;;8.77;4.37;;;0.60;98.30;;;;;;2219632;64;20194;-32
2021/12/18 11:25:54;;;;;;;10.83;4.23;;;0.60;98.60;;;;;;2216285;64;20111;-37
2021/12/18 11:28:24;;;;;;;10.67;6.53;;;0.60;98.40;;;;;;2213655;64;20099;-36
2021/12/18 11:30:51;;;;;;;11.53;7.23;;;0.50;98.70;;;;;;2213531;64;20081;-34
2021/12/18 11:33:17;;;;;;;8.83;4.40;;;0.50;98.80;;;;;;2216415;64;20116;-31
2021/12/18 11:35:44;;;;;;;12.20;5.50;;;0.60;99.00;;;;;;2219784;64;20495;-34
2021/12/18 11:38:12;;;;;;;5.47;3.17;;;0.70;98.80;;;;;;2219666;64;20097;-31
2021/12/18 11:40:39;;;;;;;11.60;5.97;;;0.60;98.80;;;;;;2213183;64;20542;-32
2021/12/18 11:43:36;;;;;;;2.87;1.80;;;0.60;98.90;;;;;;2219673;64;20507;-33
2021/12/18 11:46:26;;;;;;;4.40;1.93;;;0.50;98.50;;;;;;2216434;64;20092;-34
2021/12/18 11:48:54;;;;;;;8.53;3.87;;;0.50;98.50;;;;;;2214383;64;20085;-34
2021/12/18 11:51:20;;;;;;;8.83;4.83;;;0.50;98.80;;;;;;2212573;64;20100;-32
2021/12/18 11:53:47;;;;;;;9.83;3.17;;;0.50;98.80;;;;;;2212661;64;20100;-38
2021/12/18 11:56:14;;;;;;;5.07;1.60;;;0.50;98.80;;;;;;2212989;64;20167;-37
2021/12/18 11:58:42;;;;;;;9.30;3.63;;;0.40;98.60;;;;;;2213338;64;20085;-31
2021/12/18 12:01:18;;;;;;;9.07;4.70;;;0.50;98.90;;;;;;2213116;64;20116;-33
2021/12/18 12:03:52;;;;;;;12.07;4.97;;;0.50;98.70;;;;;;2213306;64;20093;-32
2021/12/18 12:06:21;;;;;;;10.27;2.73;;;0.40;98.60;;;;;;2213346;64;20081;-33
2021/12/18 12:08:51;;;;;;;9.27;3.43;;;0.40;98.90;;;;;;2213352;64;20197;-33
2021/12/18 12:11:25;;;;;;;11.23;5.80;;;0.40;99.00;;;;;;2216590;64;20475;-31
2021/12/18 12:14:09;;;;;;;10.77;5.20;;;0.30;98.90;;;;;;2219700;64;20442;-36
2021/12/18 12:16:47;;;;;;;4.33;2.33;;;0.30;99.10;;;;;;2213411;64;20276;-31
2021/12/18 12:19:16;;;;;;;5.67;2.40;;;0.20;98.90;;;;;;2213338;64;20084;-33
2021/12/18 12:21:46;;;;;;;1.00;0.60;;;0.30;99.00;;;;;;2213237;64;20093;-35
2021/12/18 12:24:14;;;;;;;9.60;3.73;;;0.20;98.70;;;;;;2213348;64;20085;-35
2021/12/18 12:26:41;;;;;;;10.33;5.00;;;0.20;99.00;;;;;;2216461;64;20583;-35
2021/12/18 12:29:09;;;;;;;6.97;2.50;;;0.10;98.90;;;;;;2216592;64;20107;-35
2021/12/18 12:31:36;;;;;;;8.67;4.20;;;0.20;99.10;;;;;;2213003;64;20089;-33
2021/12/18 12:34:22;;;;;;;12.57;6.40;;;0.10;99.20;;;;;;2213294;64;20104;-34
2021/12/18 12:36:50;;;;;;;9.73;5.20;;;0.10;99.40;;;;;;2213189;64;20077;-34
2021/12/18 12:39:17;;;;;;;5.03;2.27;;;0.10;99.30;;;;;;2213262;64;20940;-34
2021/12/18 12:41:50;;;;;;;7.33;4.13;;;0.00;99.30;;;;;;2213346;64;20089;-32
2021/12/18 12:44:28;;;;;;;6.17;2.53;;;0.00;99.50;;;;;;2213343;64;20089;-33
2021/12/18 12:47:18;;;;;;;6.43;3.33;;;0.00;99.30;;;;;;2214477;64;20490;-37
2021/12/18 12:49:46;;;;;;;9.80;3.87;;;0.00;99.40;;;;;;2220401;64;20100;-32
2021/12/18 12:52:19;;;;;;;16.70;2.33;;;0.00;99.40;;;;;;2219978;64;20100;-33
2021/12/18 12:54:54;;;;;;;1.37;1.13;;;0.00;99.50;;;;;;2220131;64;20155;-31
2021/12/18 12:57:28;;;;;;;1.57;0.87;;;0.00;99.50;;;;;;2220122;64;20444;-41
2021/12/18 13:00:03;;;;;;;8.10;3.47;;;-0.10;99.50;;;;;;2220285;64;20085;-32
2021/12/18 13:02:34;;;;;;;1.23;0.70;;;-0.20;99.40;;;;;;2220149;64;20096;-33
2021/12/18 13:05:05;;;;;;;4.30;2.33;;;-0.10;99.50;;;;;;2220145;64;20068;-32
2021/12/18 13:07:32;;;;;;;1.23;0.90;;;-0.20;99.60;;;;;;2220008;64;20084;-34
2021/12/18 13:09:59;;;;;;;8.37;3.97;;;-0.20;99.80;;;;;;2220054;64;20101;-35
2021/12/18 13:12:26;;;;;;;7.83;1.40;;;-0.30;99.40;;;;;;2220393;64;20472;-33
2021/12/18 13:14:53;;;;;;;7.30;2.83;;;-0.30;99.50;;;;;;2220059;64;20097;-34
2021/12/18 13:17:25;;;;;;;5.50;2.30;;;-0.30;99.70;;;;;;2220240;64;20080;-34
2021/12/18 13:19:57;;;;;;;7.27;2.83;;;-0.30;99.50;;;;;;2220015;64;20107;-33
2021/12/18 13:22:29;;;;;;;4.93;1.93;;;-0.30;99.60;;;;;;2220394;64;20537;-34
2021/12/18 13:25:03;;;;;;;6.90;1.33;;;-0.30;99.60;;;;;;2217223;64;20438;-34
2021/12/18 13:27:30;;;;;;;6.07;2.37;;;-0.30;99.70;;;;;;2220331;64;20448;-33
2021/12/18 13:30:16;;;;;;;3.80;1.37;;;-0.50;99.70;;;;;;2217030;64;20329;-34